sensor_id;sensor_type;location;lat;lon;timestamp;P1;durP1;ratioP1;P2;durP2;ratioP2
51852;SDS011;37894;53.172;6.598;2023-11-18T00:00:49;38.08;;;21.48;;
51852;SDS011;37894;53.172;6.598;2023-11-18T00:03:15;37.78;;;22.65;;
51852;SDS011;37894;53.172;6.598;2023-11-18T00:05:42;36.67;;;21.98;;
51852;SDS011;37894;53.172;6.598;2023-11-18T00:08:08;37.08;;;23.33;;
51852;SDS011;37894;53.172;6.598;2023-11-18T00:10:33;35.83;;;20.95;;
51852;SDS011;37894;53.172;6.598;2023-11-18T00:12:59;39.92;;;22.38;;
51852;SDS011;37894;53.172;6.598;2023-11-18T00:15:27;42.78;;;23.55;;
51852;SDS011;37894;53.172;6.598;2023-11-18T00:17:53;41.95;;;24.25;;
51852;SDS011;37894;53.172;6.598;2023-11-18T00:20:19;42.05;;;25.90;;
51852;SDS011;37894;53.172;6.598;2023-11-18T00:22:45;37.30;;;22.95;;
51852;SDS011;37894;53.172;6.598;2023-11-18T00:25:11;44.72;;;24.55;;
51852;SDS011;37894;53.172;6.598;2023-11-18T00:27:39;40.28;;;22.92;;
51852;SDS011;37894;53.172;6.598;2023-11-18T00:30:05;39.25;;;23.13;;
51852;SDS011;37894;53.172;6.598;2023-11-18T00:32:36;43.65;;;22.88;;
51852;SDS011;37894;53.172;6.598;2023-11-18T00:35:02;37.08;;;22.00;;
51852;SDS011;37894;53.172;6.598;2023-11-18T00:37:31;38.78;;;22.45;;
51852;SDS011;37894;53.172;6.598;2023-11-18T00:39:57;36.25;;;22.67;;
51852;SDS011;37894;53.172;6.598;2023-11-18T00:42:22;38.00;;;22.42;;
51852;SDS011;37894;53.172;6.598;2023-11-18T00:44:48;44.17;;;22.50;;
51852;SDS011;37894;53.172;6.598;2023-11-18T00:47:14;46.67;;;25.35;;
51852;SDS011;37894;53.172;6.598;2023-11-18T00:49:40;48.03;;;25.63;;
51852;SDS011;37894;53.172;6.598;2023-11-18T00:52:06;45.13;;;23.65;;
51852;SDS011;37894;53.172;6.598;2023-11-18T00:54:34;46.90;;;25.50;;
51852;SDS011;37894;53.172;6.598;2023-11-18T00:57:00;45.10;;;24.75;;
51852;SDS011;37894;53.172;6.598;2023-11-18T00:59:26;43.78;;;25.10;;
51852;SDS011;37894;53.172;6.598;2023-11-18T01:01:52;42.83;;;24.40;;
51852;SDS011;37894;53.172;6.598;2023-11-18T01:04:18;51.10;;;23.80;;
51852;SDS011;37894;53.172;6.598;2023-11-18T01:06:45;46.65;;;24.75;;
51852;SDS011;37894;53.172;6.598;2023-11-18T01:09:12;43.10;;;23.83;;
51852;SDS011;37894;53.172;6.598;2023-11-18T01:11:38;50.08;;;26.25;;
51852;SDS011;37894;53.172;6.598;2023-11-18T01:14:04;46.10;;;24.65;;
51852;SDS011;37894;53.172;6.598;2023-11-18T01:16:29;52.17;;;26.77;;
51852;SDS011;37894;53.172;6.598;2023-11-18T01:18:55;50.80;;;26.95;;
51852;SDS011;37894;53.172;6.598;2023-11-18T01:21:21;52.35;;;26.88;;
51852;SDS011;37894;53.172;6.598;2023-11-18T01:23:48;49.88;;;26.35;;
51852;SDS011;37894;53.172;6.598;2023-11-18T01:26:14;50.88;;;26.35;;
51852;SDS011;37894;53.172;6.598;2023-11-18T01:28:40;48.42;;;25.63;;
51852;SDS011;37894;53.172;6.598;2023-11-18T01:31:08;45.58;;;24.63;;
51852;SDS011;37894;53.172;6.598;2023-11-18T01:33:35;51.35;;;26.95;;
51852;SDS011;37894;53.172;6.598;2023-11-18T01:36:08;57.72;;;27.98;;
51852;SDS011;37894;53.172;6.598;2023-11-18T01:38:35;53.15;;;27.92;;
51852;SDS011;37894;53.172;6.598;2023-11-18T01:41:03;49.90;;;26.60;;
51852;SDS011;37894;53.172;6.598;2023-11-18T01:43:31;54.60;;;27.38;;
51852;SDS011;37894;53.172;6.598;2023-11-18T01:46:07;58.38;;;28.40;;
51852;SDS011;37894;53.172;6.598;2023-11-18T01:48:35;60.05;;;28.35;;
51852;SDS011;37894;53.172;6.598;2023-11-18T01:51:03;66.97;;;29.83;;
51852;SDS011;37894;53.172;6.598;2023-11-18T01:53:31;55.97;;;26.92;;
51852;SDS011;37894;53.172;6.598;2023-11-18T01:56:00;56.38;;;26.33;;
51852;SDS011;37894;53.172;6.598;2023-11-18T01:58:28;56.67;;;25.95;;
51852;SDS011;37894;53.172;6.598;2023-11-18T02:00:56;53.05;;;26.10;;
51852;SDS011;37894;53.172;6.598;2023-11-18T02:03:23;52.35;;;26.50;;
51852;SDS011;37894;53.172;6.598;2023-11-18T02:05:49;55.25;;;25.33;;
51852;SDS011;37894;53.172;6.598;2023-11-18T02:08:14;62.47;;;28.27;;
51852;SDS011;37894;53.172;6.598;2023-11-18T02:10:45;57.60;;;26.35;;
51852;SDS011;37894;53.172;6.598;2023-11-18T02:13:24;68.45;;;28.30;;
51852;SDS011;37894;53.172;6.598;2023-11-18T02:15:59;66.57;;;28.92;;
51852;SDS011;37894;53.172;6.598;2023-11-18T02:18:28;74.25;;;30.50;;
51852;SDS011;37894;53.172;6.598;2023-11-18T02:20:55;71.05;;;31.65;;
51852;SDS011;37894;53.172;6.598;2023-11-18T02:23:24;76.97;;;31.83;;
51852;SDS011;37894;53.172;6.598;2023-11-18T02:25:54;78.93;;;31.13;;
51852;SDS011;37894;53.172;6.598;2023-11-18T02:28:23;72.85;;;32.15;;
51852;SDS011;37894;53.172;6.598;2023-11-18T02:30:54;69.80;;;30.30;;
51852;SDS011;37894;53.172;6.598;2023-11-18T02:33:32;81.55;;;32.33;;
51852;SDS011;37894;53.172;6.598;2023-11-18T02:36:09;81.10;;;32.70;;
51852;SDS011;37894;53.172;6.598;2023-11-18T02:38:39;96.45;;;32.80;;
51852;SDS011;37894;53.172;6.598;2023-11-18T02:41:12;96.75;;;33.50;;
51852;SDS011;37894;53.172;6.598;2023-11-18T02:43:38;111.90;;;35.80;;
51852;SDS011;37894;53.172;6.598;2023-11-18T02:46:05;114.40;;;34.88;;
51852;SDS011;37894;53.172;6.598;2023-11-18T02:48:32;121.07;;;36.38;;
51852;SDS011;37894;53.172;6.598;2023-11-18T02:51:01;106.78;;;34.83;;
51852;SDS011;37894;53.172;6.598;2023-11-18T02:53:27;109.57;;;34.70;;
51852;SDS011;37894;53.172;6.598;2023-11-18T02:55:53;128.75;;;34.70;;
51852;SDS011;37894;53.172;6.598;2023-11-18T02:58:27;182.75;;;35.38;;
51852;SDS011;37894;53.172;6.598;2023-11-18T03:00:53;177.88;;;37.20;;
51852;SDS011;37894;53.172;6.598;2023-11-18T03:03:19;196.32;;;37.75;;
51852;SDS011;37894;53.172;6.598;2023-11-18T03:05:45;134.73;;;32.53;;
51852;SDS011;37894;53.172;6.598;2023-11-18T03:08:13;130.70;;;31.92;;
51852;SDS011;37894;53.172;6.598;2023-11-18T03:10:39;131.05;;;33.05;;
51852;SDS011;37894;53.172;6.598;2023-11-18T03:13:09;203.13;;;34.80;;
51852;SDS011;37894;53.172;6.598;2023-11-18T03:15:35;122.78;;;30.50;;
51852;SDS011;37894;53.172;6.598;2023-11-18T03:18:01;195.18;;;34.60;;
51852;SDS011;37894;53.172;6.598;2023-11-18T03:20:28;176.18;;;30.92;;
51852;SDS011;37894;53.172;6.598;2023-11-18T03:22:54;144.35;;;32.60;;
51852;SDS011;37894;53.172;6.598;2023-11-18T03:25:20;214.27;;;39.25;;
51852;SDS011;37894;53.172;6.598;2023-11-18T03:27:49;149.48;;;34.50;;
51852;SDS011;37894;53.172;6.598;2023-11-18T03:30:14;165.85;;;35.38;;
51852;SDS011;37894;53.172;6.598;2023-11-18T03:32:42;187.90;;;33.83;;
51852;SDS011;37894;53.172;6.598;2023-11-18T03:35:08;162.73;;;34.22;;
51852;SDS011;37894;53.172;6.598;2023-11-18T03:37:37;140.75;;;31.75;;
51852;SDS011;37894;53.172;6.598;2023-11-18T03:40:07;178.35;;;35.40;;
51852;SDS011;37894;53.172;6.598;2023-11-18T03:42:34;180.52;;;34.85;;
51852;SDS011;37894;53.172;6.598;2023-11-18T03:45:01;160.65;;;34.03;;
51852;SDS011;37894;53.172;6.598;2023-11-18T03:47:27;134.18;;;32.67;;
51852;SDS011;37894;53.172;6.598;2023-11-18T03:49:55;164.63;;;32.97;;
51852;SDS011;37894;53.172;6.598;2023-11-18T03:52:21;200.38;;;35.25;;
51852;SDS011;37894;53.172;6.598;2023-11-18T03:54:47;169.50;;;33.38;;
51852;SDS011;37894;53.172;6.598;2023-11-18T03:57:13;162.18;;;35.22;;
51852;SDS011;37894;53.172;6.598;2023-11-18T03:59:39;120.75;;;32.22;;
51852;SDS011;37894;53.172;6.598;2023-11-18T04:02:08;132.00;;;31.95;;
51852;SDS011;37894;53.172;6.598;2023-11-18T04:04:36;199.10;;;36.67;;
51852;SDS011;37894;53.172;6.598;2023-11-18T04:07:02;157.55;;;33.97;;
51852;SDS011;37894;53.172;6.598;2023-11-18T04:09:29;108.60;;;30.83;;
51852;SDS011;37894;53.172;6.598;2023-11-18T04:11:55;147.23;;;32.78;;
51852;SDS011;37894;53.172;6.598;2023-11-18T04:14:21;137.65;;;33.38;;
51852;SDS011;37894;53.172;6.598;2023-11-18T04:16:48;138.82;;;32.50;;
51852;SDS011;37894;53.172;6.598;2023-11-18T04:19:14;183.23;;;35.35;;
51852;SDS011;37894;53.172;6.598;2023-11-18T04:21:40;164.27;;;34.20;;
51852;SDS011;37894;53.172;6.598;2023-11-18T04:24:07;116.35;;;30.17;;
51852;SDS011;37894;53.172;6.598;2023-11-18T04:26:33;154.75;;;34.80;;
51852;SDS011;37894;53.172;6.598;2023-11-18T04:28:58;156.07;;;34.90;;
51852;SDS011;37894;53.172;6.598;2023-11-18T04:31:25;130.60;;;31.45;;
51852;SDS011;37894;53.172;6.598;2023-11-18T04:33:50;128.85;;;32.58;;
51852;SDS011;37894;53.172;6.598;2023-11-18T04:36:16;108.57;;;31.55;;
51852;SDS011;37894;53.172;6.598;2023-11-18T04:38:44;121.88;;;31.73;;
51852;SDS011;37894;53.172;6.598;2023-11-18T04:41:10;132.55;;;34.97;;
51852;SDS011;37894;53.172;6.598;2023-11-18T04:43:36;97.53;;;33.25;;
51852;SDS011;37894;53.172;6.598;2023-11-18T04:46:04;129.52;;;33.33;;
51852;SDS011;37894;53.172;6.598;2023-11-18T04:48:30;98.47;;;31.80;;
51852;SDS011;37894;53.172;6.598;2023-11-18T04:50:58;142.25;;;34.83;;
51852;SDS011;37894;53.172;6.598;2023-11-18T04:53:24;114.40;;;31.25;;
51852;SDS011;37894;53.172;6.598;2023-11-18T04:55:50;161.57;;;37.67;;
51852;SDS011;37894;53.172;6.598;2023-11-18T04:58:17;125.25;;;33.63;;
51852;SDS011;37894;53.172;6.598;2023-11-18T05:00:44;115.90;;;33.05;;
51852;SDS011;37894;53.172;6.598;2023-11-18T05:03:10;118.45;;;33.03;;
51852;SDS011;37894;53.172;6.598;2023-11-18T05:05:36;107.43;;;32.72;;
51852;SDS011;37894;53.172;6.598;2023-11-18T05:08:06;106.63;;;33.13;;
51852;SDS011;37894;53.172;6.598;2023-11-18T05:10:33;113.55;;;34.90;;
51852;SDS011;37894;53.172;6.598;2023-11-18T05:12:59;104.68;;;31.92;;
51852;SDS011;37894;53.172;6.598;2023-11-18T05:15:26;111.72;;;31.85;;
51852;SDS011;37894;53.172;6.598;2023-11-18T05:17:53;102.68;;;31.77;;
51852;SDS011;37894;53.172;6.598;2023-11-18T05:20:19;94.53;;;32.03;;
51852;SDS011;37894;53.172;6.598;2023-11-18T05:22:45;124.50;;;33.72;;
51852;SDS011;37894;53.172;6.598;2023-11-18T05:25:11;144.75;;;35.25;;
51852;SDS011;37894;53.172;6.598;2023-11-18T05:27:37;127.60;;;35.22;;
51852;SDS011;37894;53.172;6.598;2023-11-18T05:30:07;116.43;;;32.60;;
51852;SDS011;37894;53.172;6.598;2023-11-18T05:32:34;114.15;;;33.53;;
51852;SDS011;37894;53.172;6.598;2023-11-18T05:35:00;171.48;;;37.08;;
51852;SDS011;37894;53.172;6.598;2023-11-18T05:37:30;119.38;;;33.50;;
51852;SDS011;37894;53.172;6.598;2023-11-18T05:40:01;147.95;;;37.70;;
51852;SDS011;37894;53.172;6.598;2023-11-18T05:42:32;140.55;;;34.63;;
51852;SDS011;37894;53.172;6.598;2023-11-18T05:45:01;146.27;;;35.15;;
51852;SDS011;37894;53.172;6.598;2023-11-18T05:47:27;124.60;;;33.20;;
51852;SDS011;37894;53.172;6.598;2023-11-18T05:49:54;143.32;;;34.88;;
51852;SDS011;37894;53.172;6.598;2023-11-18T05:52:20;135.50;;;35.85;;
51852;SDS011;37894;53.172;6.598;2023-11-18T05:54:47;134.52;;;34.67;;
51852;SDS011;37894;53.172;6.598;2023-11-18T05:57:16;134.00;;;32.53;;
51852;SDS011;37894;53.172;6.598;2023-11-18T05:59:43;120.55;;;32.30;;
51852;SDS011;37894;53.172;6.598;2023-11-18T06:02:09;125.43;;;33.45;;
51852;SDS011;37894;53.172;6.598;2023-11-18T06:04:43;161.10;;;36.03;;
51852;SDS011;37894;53.172;6.598;2023-11-18T06:07:09;127.60;;;33.17;;
51852;SDS011;37894;53.172;6.598;2023-11-18T06:09:38;123.00;;;33.55;;
51852;SDS011;37894;53.172;6.598;2023-11-18T06:12:08;149.25;;;34.85;;
51852;SDS011;37894;53.172;6.598;2023-11-18T06:14:35;132.88;;;34.92;;
51852;SDS011;37894;53.172;6.598;2023-11-18T06:17:07;129.23;;;33.65;;
51852;SDS011;37894;53.172;6.598;2023-11-18T06:19:33;120.38;;;33.30;;
51852;SDS011;37894;53.172;6.598;2023-11-18T06:22:00;126.38;;;34.47;;
51852;SDS011;37894;53.172;6.598;2023-11-18T06:24:26;122.47;;;34.42;;
51852;SDS011;37894;53.172;6.598;2023-11-18T06:26:53;127.45;;;32.70;;
51852;SDS011;37894;53.172;6.598;2023-11-18T06:29:18;123.30;;;35.45;;
51852;SDS011;37894;53.172;6.598;2023-11-18T06:31:44;147.95;;;36.58;;
51852;SDS011;37894;53.172;6.598;2023-11-18T06:34:10;129.82;;;35.78;;
51852;SDS011;37894;53.172;6.598;2023-11-18T06:36:37;128.48;;;34.70;;
51852;SDS011;37894;53.172;6.598;2023-11-18T06:39:04;139.05;;;35.20;;
51852;SDS011;37894;53.172;6.598;2023-11-18T06:41:32;112.75;;;32.25;;
51852;SDS011;37894;53.172;6.598;2023-11-18T06:44:04;140.30;;;35.50;;
51852;SDS011;37894;53.172;6.598;2023-11-18T06:46:42;121.20;;;34.53;;
51852;SDS011;37894;53.172;6.598;2023-11-18T06:49:08;123.65;;;35.10;;
51852;SDS011;37894;53.172;6.598;2023-11-18T06:51:36;168.02;;;36.78;;
51852;SDS011;37894;53.172;6.598;2023-11-18T06:54:03;130.98;;;35.60;;
51852;SDS011;37894;53.172;6.598;2023-11-18T06:56:41;117.05;;;33.60;;
51852;SDS011;37894;53.172;6.598;2023-11-18T06:59:08;122.13;;;34.47;;
51852;SDS011;37894;53.172;6.598;2023-11-18T07:01:37;151.25;;;38.88;;
51852;SDS011;37894;53.172;6.598;2023-11-18T07:04:06;128.90;;;34.28;;
51852;SDS011;37894;53.172;6.598;2023-11-18T07:06:35;95.35;;;31.45;;
51852;SDS011;37894;53.172;6.598;2023-11-18T07:09:04;125.85;;;35.50;;
51852;SDS011;37894;53.172;6.598;2023-11-18T07:11:38;123.82;;;33.58;;
51852;SDS011;37894;53.172;6.598;2023-11-18T07:14:10;114.47;;;32.45;;
51852;SDS011;37894;53.172;6.598;2023-11-18T07:16:37;138.18;;;36.92;;
51852;SDS011;37894;53.172;6.598;2023-11-18T07:19:04;122.75;;;34.63;;
51852;SDS011;37894;53.172;6.598;2023-11-18T07:21:30;116.22;;;33.95;;
51852;SDS011;37894;53.172;6.598;2023-11-18T07:23:57;111.45;;;33.03;;
51852;SDS011;37894;53.172;6.598;2023-11-18T07:26:24;100.35;;;32.10;;
51852;SDS011;37894;53.172;6.598;2023-11-18T07:28:50;89.32;;;33.30;;
51852;SDS011;37894;53.172;6.598;2023-11-18T07:31:17;91.72;;;33.05;;
51852;SDS011;37894;53.172;6.598;2023-11-18T07:33:46;110.28;;;35.50;;
51852;SDS011;37894;53.172;6.598;2023-11-18T07:36:18;91.00;;;31.15;;
51852;SDS011;37894;53.172;6.598;2023-11-18T07:38:47;115.03;;;33.38;;
51852;SDS011;37894;53.172;6.598;2023-11-18T07:41:15;106.32;;;34.53;;
51852;SDS011;37894;53.172;6.598;2023-11-18T07:43:52;119.05;;;35.05;;
51852;SDS011;37894;53.172;6.598;2023-11-18T07:46:20;106.15;;;33.92;;
51852;SDS011;37894;53.172;6.598;2023-11-18T07:48:48;106.95;;;33.47;;
51852;SDS011;37894;53.172;6.598;2023-11-18T07:51:17;110.68;;;34.70;;
51852;SDS011;37894;53.172;6.598;2023-11-18T07:53:46;108.32;;;33.25;;
51852;SDS011;37894;53.172;6.598;2023-11-18T07:56:12;107.63;;;32.78;;
51852;SDS011;37894;53.172;6.598;2023-11-18T07:58:39;121.15;;;34.55;;
51852;SDS011;37894;53.172;6.598;2023-11-18T08:01:13;111.95;;;37.15;;
51852;SDS011;37894;53.172;6.598;2023-11-18T08:03:41;146.38;;;41.92;;
51852;SDS011;37894;53.172;6.598;2023-11-18T08:06:07;113.28;;;40.00;;
51852;SDS011;37894;53.172;6.598;2023-11-18T08:08:34;123.03;;;38.80;;
51852;SDS011;37894;53.172;6.598;2023-11-18T08:11:02;139.05;;;36.58;;
51852;SDS011;37894;53.172;6.598;2023-11-18T08:13:28;136.45;;;37.15;;
51852;SDS011;37894;53.172;6.598;2023-11-18T08:15:53;134.35;;;39.17;;
51852;SDS011;37894;53.172;6.598;2023-11-18T08:18:19;131.35;;;36.75;;
51852;SDS011;37894;53.172;6.598;2023-11-18T08:20:47;126.45;;;34.92;;
51852;SDS011;37894;53.172;6.598;2023-11-18T08:23:13;114.45;;;35.97;;
51852;SDS011;37894;53.172;6.598;2023-11-18T08:25:54;120.15;;;34.22;;
51852;SDS011;37894;53.172;6.598;2023-11-18T08:32:00;112.93;;;34.25;;
51852;SDS011;37894;53.172;6.598;2023-11-18T08:34:38;123.03;;;34.95;;
51852;SDS011;37894;53.172;6.598;2023-11-18T08:37:05;133.95;;;35.80;;
51852;SDS011;37894;53.172;6.598;2023-11-18T08:39:31;134.65;;;36.45;;
51852;SDS011;37894;53.172;6.598;2023-11-18T08:41:57;137.07;;;37.63;;
51852;SDS011;37894;53.172;6.598;2023-11-18T08:44:23;117.88;;;36.05;;
51852;SDS011;37894;53.172;6.598;2023-11-18T08:46:51;126.30;;;37.08;;
51852;SDS011;37894;53.172;6.598;2023-11-18T08:49:17;140.30;;;39.38;;
51852;SDS011;37894;53.172;6.598;2023-11-18T08:51:49;123.50;;;36.15;;
51852;SDS011;37894;53.172;6.598;2023-11-18T08:54:21;137.23;;;34.75;;
51852;SDS011;37894;53.172;6.598;2023-11-18T08:56:48;138.85;;;36.97;;
51852;SDS011;37894;53.172;6.598;2023-11-18T08:59:17;151.23;;;37.75;;
51852;SDS011;37894;53.172;6.598;2023-11-18T09:01:49;126.80;;;35.85;;
51852;SDS011;37894;53.172;6.598;2023-11-18T09:04:20;123.05;;;35.45;;
51852;SDS011;37894;53.172;6.598;2023-11-18T09:06:46;127.32;;;35.60;;
51852;SDS011;37894;53.172;6.598;2023-11-18T09:09:14;131.30;;;36.75;;
51852;SDS011;37894;53.172;6.598;2023-11-18T09:11:47;123.18;;;33.20;;
51852;SDS011;37894;53.172;6.598;2023-11-18T09:14:49;106.80;;;32.83;;
51852;SDS011;37894;53.172;6.598;2023-11-18T09:17:50;113.07;;;34.13;;
51852;SDS011;37894;53.172;6.598;2023-11-18T09:20:58;114.00;;;33.92;;
51852;SDS011;37894;53.172;6.598;2023-11-18T09:23:40;118.18;;;35.58;;
51852;SDS011;37894;53.172;6.598;2023-11-18T09:26:06;114.00;;;32.40;;
51852;SDS011;37894;53.172;6.598;2023-11-18T09:28:34;128.15;;;36.00;;
51852;SDS011;37894;53.172;6.598;2023-11-18T09:31:00;104.47;;;32.25;;
51852;SDS011;37894;53.172;6.598;2023-11-18T09:33:28;107.53;;;33.53;;
51852;SDS011;37894;53.172;6.598;2023-11-18T09:36:04;101.80;;;32.33;;
51852;SDS011;37894;53.172;6.598;2023-11-18T09:38:33;86.35;;;30.40;;
51852;SDS011;37894;53.172;6.598;2023-11-18T09:41:05;94.53;;;32.65;;
51852;SDS011;37894;53.172;6.598;2023-11-18T09:43:36;89.72;;;31.02;;
51852;SDS011;37894;53.172;6.598;2023-11-18T09:46:12;102.45;;;34.55;;
51852;SDS011;37894;53.172;6.598;2023-11-18T09:48:41;91.82;;;32.67;;
51852;SDS011;37894;53.172;6.598;2023-11-18T09:51:12;100.95;;;31.35;;
51852;SDS011;37894;53.172;6.598;2023-11-18T09:53:46;95.38;;;33.70;;
51852;SDS011;37894;53.172;6.598;2023-11-18T09:56:19;88.70;;;31.45;;
51852;SDS011;37894;53.172;6.598;2023-11-18T10:01:53;89.00;;;32.88;;
51852;SDS011;37894;53.172;6.598;2023-11-18T10:04:24;97.32;;;33.90;;
51852;SDS011;37894;53.172;6.598;2023-11-18T10:06:54;96.82;;;32.33;;
51852;SDS011;37894;53.172;6.598;2023-11-18T10:09:22;86.30;;;31.60;;
51852;SDS011;37894;53.172;6.598;2023-11-18T10:12:03;84.18;;;31.33;;
51852;SDS011;37894;53.172;6.598;2023-11-18T10:14:35;95.10;;;33.00;;
51852;SDS011;37894;53.172;6.598;2023-11-18T10:17:07;91.03;;;32.60;;
51852;SDS011;37894;53.172;6.598;2023-11-18T10:19:52;89.68;;;32.67;;
51852;SDS011;37894;53.172;6.598;2023-11-18T10:22:23;92.80;;;33.70;;
51852;SDS011;37894;53.172;6.598;2023-11-18T10:24:51;95.13;;;35.47;;
51852;SDS011;37894;53.172;6.598;2023-11-18T10:27:26;88.18;;;33.38;;
51852;SDS011;37894;53.172;6.598;2023-11-18T10:30:01;94.82;;;33.55;;
51852;SDS011;37894;53.172;6.598;2023-11-18T10:32:29;97.82;;;36.17;;
51852;SDS011;37894;53.172;6.598;2023-11-18T10:34:58;97.63;;;36.13;;
51852;SDS011;37894;53.172;6.598;2023-11-18T10:37:27;93.95;;;35.30;;
51852;SDS011;37894;53.172;6.598;2023-11-18T10:39:55;85.13;;;32.90;;
51852;SDS011;37894;53.172;6.598;2023-11-18T10:42:25;86.90;;;34.20;;
51852;SDS011;37894;53.172;6.598;2023-11-18T10:44:56;89.60;;;35.30;;
51852;SDS011;37894;53.172;6.598;2023-11-18T10:47:28;85.85;;;35.10;;
51852;SDS011;37894;53.172;6.598;2023-11-18T10:49:55;77.93;;;34.92;;
51852;SDS011;37894;53.172;6.598;2023-11-18T10:52:21;90.05;;;36.22;;
51852;SDS011;37894;53.172;6.598;2023-11-18T10:54:54;93.72;;;40.20;;
51852;SDS011;37894;53.172;6.598;2023-11-18T10:57:24;81.10;;;34.60;;
51852;SDS011;37894;53.172;6.598;2023-11-18T10:59:59;78.18;;;34.60;;
51852;SDS011;37894;53.172;6.598;2023-11-18T11:02:38;88.50;;;36.55;;
51852;SDS011;37894;53.172;6.598;2023-11-18T11:05:06;76.13;;;35.35;;
51852;SDS011;37894;53.172;6.598;2023-11-18T11:07:32;78.32;;;34.88;;
51852;SDS011;37894;53.172;6.598;2023-11-18T11:10:01;76.88;;;34.83;;
51852;SDS011;37894;53.172;6.598;2023-11-18T11:12:33;77.65;;;32.53;;
51852;SDS011;37894;53.172;6.598;2023-11-18T11:17:29;71.35;;;33.13;;
51852;SDS011;37894;53.172;6.598;2023-11-18T11:22:43;69.15;;;30.65;;
51852;SDS011;37894;53.172;6.598;2023-11-18T11:28:01;56.75;;;28.73;;
51852;SDS011;37894;53.172;6.598;2023-11-18T11:36:17;67.43;;;30.42;;
51852;SDS011;37894;53.172;6.598;2023-11-18T11:41:16;52.00;;;26.10;;
51852;SDS011;37894;53.172;6.598;2023-11-18T11:43:48;49.42;;;24.30;;
51852;SDS011;37894;53.172;6.598;2023-11-18T11:46:14;55.40;;;26.63;;
51852;SDS011;37894;53.172;6.598;2023-11-18T11:48:48;49.42;;;25.30;;
51852;SDS011;37894;53.172;6.598;2023-11-18T11:54:09;43.78;;;22.40;;
51852;SDS011;37894;53.172;6.598;2023-11-18T11:56:47;45.03;;;22.23;;
51852;SDS011;37894;53.172;6.598;2023-11-18T12:02:14;42.70;;;20.98;;
51852;SDS011;37894;53.172;6.598;2023-11-18T12:04:44;46.45;;;22.20;;
51852;SDS011;37894;53.172;6.598;2023-11-18T12:07:11;41.65;;;21.38;;
51852;SDS011;37894;53.172;6.598;2023-11-18T12:09:41;36.35;;;20.30;;
51852;SDS011;37894;53.172;6.598;2023-11-18T12:12:18;37.38;;;19.63;;
51852;SDS011;37894;53.172;6.598;2023-11-18T12:14:49;34.38;;;19.13;;
51852;SDS011;37894;53.172;6.598;2023-11-18T12:17:24;41.75;;;20.23;;
51852;SDS011;37894;53.172;6.598;2023-11-18T12:19:53;39.28;;;20.48;;
51852;SDS011;37894;53.172;6.598;2023-11-18T12:22:24;40.92;;;19.83;;
51852;SDS011;37894;53.172;6.598;2023-11-18T12:35:27;38.28;;;20.52;;
51852;SDS011;37894;53.172;6.598;2023-11-18T12:48:45;44.65;;;21.77;;
51852;SDS011;37894;53.172;6.598;2023-11-18T12:51:14;47.67;;;21.48;;
51852;SDS011;37894;53.172;6.598;2023-11-18T12:53:50;41.50;;;21.42;;
51852;SDS011;37894;53.172;6.598;2023-11-18T12:56:19;46.92;;;21.98;;
51852;SDS011;37894;53.172;6.598;2023-11-18T12:58:45;45.63;;;22.13;;
51852;SDS011;37894;53.172;6.598;2023-11-18T13:01:12;42.78;;;22.05;;
51852;SDS011;37894;53.172;6.598;2023-11-18T13:03:42;42.85;;;20.60;;
51852;SDS011;37894;53.172;6.598;2023-11-18T13:06:09;35.85;;;20.15;;
51852;SDS011;37894;53.172;6.598;2023-11-18T13:08:40;43.17;;;19.85;;
51852;SDS011;37894;53.172;6.598;2023-11-18T13:11:06;41.60;;;20.25;;
51852;SDS011;37894;53.172;6.598;2023-11-18T13:13:38;42.78;;;20.42;;
51852;SDS011;37894;53.172;6.598;2023-11-18T13:16:05;38.13;;;18.70;;
51852;SDS011;37894;53.172;6.598;2023-11-18T13:18:46;41.65;;;19.60;;
51852;SDS011;37894;53.172;6.598;2023-11-18T13:21:15;42.92;;;19.08;;
51852;SDS011;37894;53.172;6.598;2023-11-18T13:23:44;43.03;;;20.77;;
51852;SDS011;37894;53.172;6.598;2023-11-18T13:26:13;52.63;;;22.40;;
51852;SDS011;37894;53.172;6.598;2023-11-18T13:28:39;41.58;;;19.55;;
51852;SDS011;37894;53.172;6.598;2023-11-18T13:31:06;44.47;;;21.27;;
51852;SDS011;37894;53.172;6.598;2023-11-18T13:33:38;46.13;;;20.50;;
51852;SDS011;37894;53.172;6.598;2023-11-18T13:36:05;45.90;;;21.27;;
51852;SDS011;37894;53.172;6.598;2023-11-18T13:38:35;48.42;;;21.10;;
51852;SDS011;37894;53.172;6.598;2023-11-18T13:41:02;49.13;;;20.67;;
51852;SDS011;37894;53.172;6.598;2023-11-18T13:43:44;43.60;;;20.65;;
51852;SDS011;37894;53.172;6.598;2023-11-18T13:46:14;45.97;;;22.77;;
51852;SDS011;37894;53.172;6.598;2023-11-18T13:48:40;50.92;;;23.40;;
51852;SDS011;37894;53.172;6.598;2023-11-18T13:51:08;41.85;;;20.60;;
51852;SDS011;37894;53.172;6.598;2023-11-18T13:53:38;51.95;;;23.73;;
51852;SDS011;37894;53.172;6.598;2023-11-18T13:56:06;44.17;;;20.80;;
51852;SDS011;37894;53.172;6.598;2023-11-18T13:58:36;48.42;;;23.55;;
51852;SDS011;37894;53.172;6.598;2023-11-18T14:01:08;51.50;;;21.90;;
51852;SDS011;37894;53.172;6.598;2023-11-18T14:06:06;55.90;;;25.05;;
51852;SDS011;37894;53.172;6.598;2023-11-18T14:08:35;48.95;;;22.40;;
51852;SDS011;37894;53.172;6.598;2023-11-18T14:11:02;47.65;;;22.38;;
51852;SDS011;37894;53.172;6.598;2023-11-18T14:13:30;50.05;;;23.90;;
51852;SDS011;37894;53.172;6.598;2023-11-18T14:15:59;42.15;;;22.08;;
51852;SDS011;37894;53.172;6.598;2023-11-18T14:18:25;53.05;;;24.25;;
51852;SDS011;37894;53.172;6.598;2023-11-18T14:20:52;44.85;;;21.70;;
51852;SDS011;37894;53.172;6.598;2023-11-18T14:23:18;61.33;;;24.70;;
51852;SDS011;37894;53.172;6.598;2023-11-18T14:25:46;55.70;;;24.58;;
51852;SDS011;37894;53.172;6.598;2023-11-18T14:28:12;47.08;;;21.45;;
51852;SDS011;37894;53.172;6.598;2023-11-18T14:30:38;49.65;;;24.15;;
51852;SDS011;37894;53.172;6.598;2023-11-18T14:33:05;51.17;;;22.88;;
51852;SDS011;37894;53.172;6.598;2023-11-18T14:35:32;63.97;;;26.30;;
51852;SDS011;37894;53.172;6.598;2023-11-18T14:37:59;55.80;;;24.08;;
51852;SDS011;37894;53.172;6.598;2023-11-18T14:40:26;48.05;;;23.02;;
51852;SDS011;37894;53.172;6.598;2023-11-18T14:42:53;51.17;;;22.92;;
51852;SDS011;37894;53.172;6.598;2023-11-18T14:45:19;48.85;;;23.50;;
51852;SDS011;37894;53.172;6.598;2023-11-18T14:47:45;47.70;;;21.73;;
51852;SDS011;37894;53.172;6.598;2023-11-18T14:50:13;51.25;;;22.77;;
51852;SDS011;37894;53.172;6.598;2023-11-18T14:52:45;46.13;;;22.48;;
51852;SDS011;37894;53.172;6.598;2023-11-18T14:55:11;48.42;;;22.15;;
51852;SDS011;37894;53.172;6.598;2023-11-18T14:57:38;68.35;;;28.80;;
51852;SDS011;37894;53.172;6.598;2023-11-18T15:00:09;55.53;;;24.10;;
51852;SDS011;37894;53.172;6.598;2023-11-18T15:02:47;62.30;;;25.13;;
51852;SDS011;37894;53.172;6.598;2023-11-18T15:05:15;54.35;;;24.27;;
51852;SDS011;37894;53.172;6.598;2023-11-18T15:07:44;56.08;;;24.20;;
51852;SDS011;37894;53.172;6.598;2023-11-18T15:10:17;54.30;;;22.33;;
51852;SDS011;37894;53.172;6.598;2023-11-18T15:12:54;54.35;;;25.08;;
51852;SDS011;37894;53.172;6.598;2023-11-18T15:15:32;53.65;;;23.27;;
51852;SDS011;37894;53.172;6.598;2023-11-18T15:17:59;50.45;;;22.15;;